Latest Weather Observations for Richmond

IDQ60801

Issued at 10:13 am EST Monday 16 September 2019 (issued every 10 minutes, with the page automatically refreshed every 10 minutes)

About weather observations | Map of weather stations | Latest weather observations for QLD | Other Formats
Station Details ID: 030161 Name: RICHMOND AIRPORT Lat: -20.70 Lon: 143.12 Height: 206.3 m
Data from the previous 72 hours. | See also: Recent months at Richmond
Date/Time
EST
Temp
°C
App
Temp
°C
Dew
Point
°C
Rel
Hum
%
Delta-T
°C
Wind Press
QNH
hPa
Press
MSL
hPa
Rain since
9am
mm
Dir  Spd
km/h
Gust
km/h
Spd
kts
Gust
kts
16/10:00am 26.1 22.9 6.7 29 10.2 NNW 13 19 7 10 1020.8 1019.8 0.0
16/09:30am 24.4 20.9 7.1 33 9.1 NNE 15 24 8 13 1021.0 1020.0 0.0
16/09:00am 23.3 18.9 7.4 36 8.3 NNE 20 26 11 14 1021.0 1020.0 0.0
16/08:30am 21.6 17.9 8.1 42 7.1 NE 17 20 9 11 1020.8 1019.8 0.0
16/08:00am 19.9 15.7 7.6 45 6.3 NE 19 28 10 15 1020.4 1019.4 0.0
16/07:30am 17.6 14.3 6.2 47 5.7 ENE 13 17 7 9 1020.0 1019.0 0.0
16/07:00am 15.9 12.6 4.3 46 5.5 NE 11 17 6 9 1019.8 1018.8 0.0
16/06:30am 15.1 11.1 2.6 43 5.7 NE 13 19 7 10 1019.1 1018.2 0.0
16/06:00am 15.1 10.9 1.6 40 6.0 NE 13 17 7 9 1018.8 1017.9 0.0
16/05:30am 15.8 11.0 0.4 35 6.7 NE 15 19 8 10 1018.6 1017.7 0.0
16/05:00am 15.9 11.5 0.5 35 6.7 NE 13 17 7 9 1018.3 1017.4 0.0
16/04:30am 16.2 11.8 0.3 34 6.9 NE 13 17 7 9 1018.2 1017.3 0.0
16/04:00am 16.8 12.3 0.0 32 7.3 ENE 13 17 7 9 1017.9 1017.0 0.0
16/03:30am 17.1 12.3 -0.1 31 7.5 NE 15 17 8 9 1017.6 1016.7 0.0
16/03:00am 17.2 12.4 -0.1 31 7.5 NE 15 19 8 10 1017.7 1016.8 0.0
16/02:30am 17.8 13.6 -0.9 28 8.0 ENE 11 15 6 8 1018.0 1017.1 0.0
16/02:00am 18.6 14.1 -0.2 28 8.2 NE 13 19 7 10 1018.1 1017.2 0.0
16/01:30am 19.4 14.2 -0.1 27 8.6 NE 17 22 9 12 1018.2 1017.3 0.0
16/01:00am 18.5 13.9 -0.8 27 8.3 ENE 13 15 7 8 1018.4 1017.5 0.0
16/12:30am 18.3 14.0 -1.5 26 8.4 ENE 11 15 6 8 1018.6 1017.7 0.0
16/12:00am 18.6 13.9 -1.8 25 8.7 ENE 13 15 7 8 1018.5 1017.6 0.0
 
Date/Time
EST
Temp
°C
App
Temp
°C
Dew
Point
°C
Rel
Hum
%
Delta-T
°C
Wind Press
QNH
hPa
Press
MSL
hPa
Rain since
9am
mm
Dir  Spd
km/h
Gust
km/h
Spd
kts
Gust
kts
15/11:30pm 19.8 15.5 -1.3 24 9.2 ENE 11 17 6 9 1018.5 1017.6 0.0
15/11:00pm 19.8 15.0 -2.5 22 9.4 E 13 15 7 8 1018.4 1017.5 0.0
15/10:30pm 21.0 16.2 -2.8 20 10.1 E 13 15 7 8 1018.2 1017.3 0.0
15/10:00pm 21.2 15.9 -3.3 19 10.3 ESE 15 17 8 9 1018.0 1017.1 0.0
15/09:30pm 23.1 17.5 -3.3 17 11.3 ESE 17 19 9 10 1018.0 1017.1 0.0
15/09:00pm 23.4 17.6 -4.7 15 11.8 E 17 20 9 11 1017.9 1017.0 0.0
15/08:30pm 23.9 17.7 -5.2 14 12.2 ESE 19 20 10 11 1017.7 1016.8 0.0
15/08:00pm 24.7 18.5 -4.6 14 12.4 ESE 19 24 10 13 1017.3 1016.4 0.0
15/07:30pm 24.2 18.0 -4.9 14 12.3 ESE 19 20 10 11 1017.2 1016.2 0.0
15/07:00pm 25.3 19.5 -5.1 13 12.9 ESE 17 17 9 9 1017.0 1016.0 0.0
15/06:30pm 27.2 21.7 -5.8 11 14.0 ESE 15 17 8 9 1016.7 1015.7 0.0
15/06:00pm 30.9 25.1 -4.2 10 15.8 E 17 24 9 13 1016.4 1015.4 0.0
15/05:30pm 32.1 27.1 -4.7 9 16.6 ENE 13 24 7 13 1016.2 1015.2 0.0
15/05:00pm 33.0 27.8 -2.6 10 16.8 ENE 15 20 8 11 1016.0 1015.0 0.0
15/04:30pm 33.1 27.9 -2.6 10 16.8 ENE 15 26 8 14 1015.8 1014.8 0.0
15/04:00pm 33.1 27.2 -2.6 10 16.8 E 19 33 10 18 1015.9 1014.9 0.0
15/03:30pm 33.4 27.3 -2.3 10 17.0 E 20 30 11 16 1016.1 1015.1 0.0
15/03:00pm 33.8 27.7 -2.0 10 17.1 E 20 33 11 18 1016.5 1015.5 0.0
15/02:30pm 34.1 27.9 -3.2 9 17.5 E 20 35 11 19 1016.6 1015.6 0.0
15/02:00pm 32.8 27.0 -4.2 9 16.9 ENE 17 28 9 15 1017.2 1016.2 0.0
15/01:30pm 33.4 27.9 -2.3 10 17.0 ENE 17 28 9 15 1017.8 1016.9 0.0
15/01:00pm 32.7 26.9 -1.6 11 16.4 NE 19 30 10 16 1018.3 1017.4 0.0
15/12:30pm 31.2 25.5 -0.5 13 15.3 ENE 19 35 10 19 1019.1 1018.2 0.0
15/12:00pm 31.6 24.9 -1.2 12 15.6 ESE 24 37 13 20 1019.7 1018.7 0.0
15/11:30am 32.0 26.6 1.2 14 15.4 ENE 19 33 10 18 1020.2 1019.2 0.0
15/11:00am 30.8 25.8 1.2 15 14.6 ENE 17 24 9 13 1020.6 1019.6 0.0
15/10:30am 30.1 26.1 4.7 20 13.3 NE 15 22 8 12 1021.0 1020.0 0.0
15/10:00am 28.4 24.7 4.6 22 12.3 NE 13 24 7 13 1021.3 1020.3 0.0
15/09:30am 26.7 21.9 4.5 24 11.3 NNE 19 24 10 13 1021.4 1020.4 0.0
15/09:00am 25.2 20.7 4.3 26 10.5 NNE 17 24 9 13 1021.5 1020.5 0.0
15/08:30am 22.9 18.2 3.4 28 9.5 NNE 17 20 9 11 1021.3 1020.3 0.0
15/08:00am 19.8 15.4 2.6 32 8.0 NNE 15 19 8 10 1021.1 1020.1 0.0
15/07:30am 17.0 13.1 1.0 34 7.1 NNE 11 15 6 8 1020.8 1019.8 0.0
15/07:00am 13.9 10.3 0.5 40 5.7 NE 9 11 5 6 1020.3 1019.3 0.0
15/06:30am 12.9 9.1 -0.7 39 5.6 NE 9 11 5 6 1019.7 1018.7 0.0
15/06:00am 12.8 8.1 -1.9 36 5.9 E 13 13 7 7 1019.2 1018.3 0.0
15/05:30am 12.8 8.4 -2.6 34 6.1 ENE 11 13 6 7 1019.0 1018.1 0.0
15/05:00am 13.6 9.6 -2.3 33 6.4 ENE 9 11 5 6 1018.9 1018.0 0.0
15/04:30am 14.0 10.4 -2.0 33 6.5 ENE 7 11 4 6 1018.6 1017.7 0.0
15/04:00am 14.6 10.6 -2.3 31 6.8 ENE 9 13 5 7 1018.2 1017.3 0.0
15/03:30am 14.3 9.4 -3.0 30 6.9 ESE 13 15 7 8 1018.0 1017.1 0.0
15/03:00am 13.8 9.2 -3.9 29 6.8 SE 11 15 6 8 1018.0 1017.1 0.0
15/02:30am 15.3 10.8 -3.6 27 7.5 E 11 13 6 7 1018.0 1017.1 0.0
15/02:00am 16.1 11.5 -3.9 25 7.9 E 11 13 6 7 1018.3 1017.4 0.0
15/01:30am 17.1 12.2 -3.6 24 8.4 E 13 15 7 8 1018.2 1017.3 0.0
15/01:00am 17.7 12.3 -4.3 22 8.8 E 15 20 8 11 1018.4 1017.5 0.0
15/12:30am 18.6 12.9 -3.5 22 9.1 E 17 19 9 10 1018.5 1017.6 0.0
15/12:00am 20.4 15.1 -4.0 19 10.1 E 15 17 8 9 1018.6 1017.7 0.0
 
Date/Time
EST
Temp
°C
App
Temp
°C
Dew
Point
°C
Rel
Hum
%
Delta-T
°C
Wind Press
QNH
hPa
Press
MSL
hPa
Rain since
9am
mm
Dir  Spd
km/h
Gust
km/h
Spd
kts
Gust
kts
14/11:30pm 21.3 15.1 -4.7 17 10.7 E 19 22 10 12 1018.6 1017.7 0.0
14/11:00pm 20.9 14.7 -5.0 17 10.5 ESE 19 20 10 11 1018.5 1017.6 0.0
14/10:30pm 21.1 14.9 -4.9 17 10.6 ESE 19 20 10 11 1018.6 1017.7 0.0
14/10:00pm 21.1 15.0 -4.1 18 10.4 ESE 19 20 10 11 1018.6 1017.7 0.0
14/09:30pm 20.8 15.0 -5.1 17 10.5 SE 17 19 9 10 1018.6 1017.7 0.0
14/09:00pm 21.7 15.9 -4.4 17 10.8 SE 17 20 9 11 1018.5 1017.6 0.0
14/08:30pm 21.5 16.0 -5.3 16 10.9 SE 15 19 8 10 1018.4 1017.5 0.0
14/08:00pm 23.0 16.8 -5.0 15 11.6 SE 19 20 10 11 1018.1 1017.2 0.0
14/07:30pm 24.6 18.8 -4.6 14 12.4 ESE 17 19 9 10 1018.0 1017.1 0.0
14/07:00pm 25.5 20.2 -3.9 14 12.7 ESE 15 17 8 9 1017.8 1016.9 0.0
14/06:30pm 28.4 23.5 -3.7 12 14.3 ESE 13 17 7 9 1017.6 1016.7 0.0
14/06:00pm 30.4 25.5 -3.3 11 15.4 ESE 13 19 7 10 1017.3 1016.4 0.0
14/05:30pm 32.0 27.5 -3.4 10 16.3 ESE 11 19 6 10 1017.1 1016.1 0.0
14/05:00pm 32.4 26.0 -4.5 9 16.7 ESE 20 30 11 16 1017.0 1016.0 0.0
14/04:30pm 32.9 28.1 -2.7 10 16.7 E 13 24 7 13 1016.9 1015.9 0.0
14/04:00pm 32.5 26.3 -3.0 10 16.5 E 20 30 11 16 1017.1 1016.1 0.0
14/03:30pm 33.5 29.3 -3.7 9 17.3 E 9 30 5 16 1017.2 1016.2 0.0
14/03:00pm 32.6 27.5 -1.7 11 16.3 E 15 28 8 15 1017.5 1016.6 0.0
14/02:30pm 32.5 28.2 -1.7 11 16.3 SE 11 20 6 11 1017.9 1017.0 0.0
14/02:00pm 32.8 27.9 -0.3 12 16.1 ENE 15 26 8 14 1018.4 1017.5 0.0
14/01:30pm 32.1 27.9 -0.9 12 15.9 ESE 11 20 6 11 1019.0 1018.1 0.0
14/01:00pm 31.1 25.7 -1.6 12 15.4 E 17 32 9 17 1019.7 1018.7 0.0
14/12:30pm 31.6 25.3 -1.2 12 15.7 SE 22 30 12 16 1020.2 1019.2 0.0
14/12:00pm 30.3 24.9 -1.2 13 14.9 ESE 17 30 9 16 1020.8 1019.8 0.0
14/11:30am 30.2 25.7 -0.2 14 14.6 E 13 22 7 12 1021.4 1020.4 0.0
14/11:00am 29.2 24.9 0.8 16 13.8 ENE 13 17 7 9 1021.9 1021.0 0.0
14/10:30am 28.0 24.3 -0.1 16 13.3 NNE 9 17 5 9 1022.2 1021.3 0.0
14/10:00am 26.8 23.7 1.3 19 12.3 NE 7 13 4 7 1022.5 1021.6 0.0
14/09:30am 25.0 22.0 1.8 22 11.1 NE 7 11 4 6 1022.6 1021.7 0.0
14/09:00am 23.4 20.0 1.7 24 10.2 ENE 9 13 5 7 1022.6 1021.7 0.0
14/08:30am 20.5 17.0 1.4 28 8.8 ENE 9 13 5 7 1022.5 1021.6 0.0
14/08:00am 17.3 14.0 0.0 31 7.5 ENE 7 11 4 6 1022.2 1021.3 0.0
14/07:30am 14.4 10.9 -1.2 34 6.5 ENE 7 11 4 6 1022.0 1021.1 0.0
14/07:00am 11.3 7.3 -2.1 39 5.2 ESE 9 11 5 6 1021.7 1020.8 0.0
14/06:30am 10.8 5.5 -3.3 37 5.4 SE 15 19 8 10 1021.3 1020.3 0.0
14/06:00am 10.8 6.9 -1.6 42 4.9 ENE 9 11 5 6 1020.5 1019.5 0.0
14/05:30am 11.6 7.9 -2.6 37 5.5 ESE 7 9 4 5 1020.2 1019.2 0.0
14/05:00am 12.0 8.0 -2.6 36 5.7 ESE 9 11 5 6 1019.9 1018.9 0.0
14/04:30am 12.2 7.3 -3.2 34 6.0 ESE 13 13 7 7 1019.9 1018.9 0.0
14/04:00am 11.3 6.9 -2.8 37 5.4 ESE 11 13 6 7 1020.1 1019.1 0.0
14/03:30am 12.3 8.2 -2.7 35 5.9 E 9 9 5 5 1020.1 1019.1 0.0
14/03:00am 12.6 8.5 -2.8 34 6.0 ENE 9 11 5 6 1020.1 1019.1 0.0
14/02:30am 13.3 9.6 -2.6 33 6.3 E 7 9 4 5 1020.2 1019.2 0.0
14/02:00am 12.4 7.4 -4.2 31 6.3 SSE 13 17 7 9 1020.3 1019.3 0.0
14/01:30am 12.9 7.9 -4.2 30 6.5 SSE 13 17 7 9 1020.3 1019.3 0.0
14/01:00am 14.4 10.7 -2.5 31 6.8 E 7 9 4 5 1020.3 1019.3 0.0
14/12:30am 14.4 10.3 -2.9 30 6.9 SE 9 11 5 6 1020.5 1019.5 0.0
14/12:00am 15.4 11.4 -2.5 29 7.2 SE 9 11 5 6 1020.6 1019.6 0.0
 
Date/Time
EST
Temp
°C
App
Temp
°C
Dew
Point
°C
Rel
Hum
%
Delta-T
°C
Wind Press
QNH
hPa
Press
MSL
hPa
Rain since
9am
mm
Dir  Spd
km/h
Gust
km/h
Spd
kts
Gust
kts
13/11:30pm 15.3 11.2 -3.1 28 7.4 SE 9 11 5 6 1020.6 1019.6 0.0
13/11:00pm 15.4 11.3 -3.0 28 7.4 SE 9 11 5 6 1020.8 1019.8 0.0
13/10:30pm 15.9 11.0 -3.6 26 7.8 SSE 13 15 7 8 1020.8 1019.8 0.0
13/10:00pm 18.8 14.0 -2.2 24 8.8 SE 13 15 7 8 1020.7 1019.7 0.0
13/09:30pm 20.5 14.6 -1.9 22 9.7 ESE 19 20 10 11 1020.8 1019.8 0.0
13/09:00pm 21.2 15.4 -1.3 22 9.9 ESE 19 20 10 11 1020.6 1019.6 0.0
13/08:30pm 21.7 16.4 -0.9 22 10.1 ESE 17 19 9 10 1020.5 1019.5 0.0
13/08:00pm 22.4 17.0 -1.0 21 10.4 ESE 17 19 9 10 1020.3 1019.3 0.0
13/07:30pm 23.3 18.0 -0.9 20 10.9 ESE 17 19 9 10 1020.0 1019.0 0.0
13/07:00pm 24.8 19.4 -1.1 18 11.7 ESE 17 20 9 11 1019.7 1018.7 0.0
13/06:30pm 26.2 20.8 -1.6 16 12.7 ESE 17 22 9 12 1019.4 1018.5 0.0
13/06:00pm 28.6 22.0 -0.5 15 13.7 ESE 24 30 13 16 1019.3 1018.4 0.0
13/05:30pm 29.5 22.8 -0.8 14 14.4 ESE 24 35 13 19 1019.1 1018.2 0.0
13/05:00pm 30.1 23.1 -0.3 14 14.6 SE 26 33 14 18 1018.8 1017.9 0.0
13/04:30pm 30.7 23.4 0.2 14 14.8 ESE 28 37 15 20 1018.7 1017.8 0.0
13/04:00pm 31.2 23.6 0.6 14 15.0 ESE 30 37 16 20 1018.7 1017.8 0.0
13/03:42pm 31.0 23.8 0.4 14 15.0 ESE 28 50 15 27 1018.7 1017.8 0.0
13/03:30pm 31.6 24.8 0.9 14 15.2 SE 26 35 14 19 1018.8 1017.9 0.0
13/03:27pm 30.8 23.1 0.2 14 14.9 SE 30 48 16 26 1018.9 1018.0 0.0
13/03:00pm 31.5 23.9 0.8 14 15.1 ESE 30 43 16 23 1019.0 1018.1 0.0
13/02:30pm 30.7 23.8 0.2 14 14.8 ESE 26 43 14 23 1019.3 1018.4 0.0
13/02:00pm 30.6 23.8 1.0 15 14.5 ESE 26 43 14 23 1019.8 1018.8 0.0
13/01:30pm 29.6 23.0 2.0 17 13.7 SE 26 41 14 22 1020.5 1019.5 0.0
13/01:00pm 29.0 23.2 2.3 18 13.3 ESE 22 35 12 19 1021.1 1020.1 0.0
13/12:30pm 29.1 23.1 3.1 19 13.1 ESE 24 35 13 19 1021.7 1020.8 0.0
13/12:00pm 28.3 22.2 2.5 19 12.8 E 24 37 13 20 1022.2 1021.3 0.0
13/11:30am 27.4 20.7 3.8 22 11.9 E 28 41 15 22 1022.9 1022.0 0.0
13/11:00am 27.3 19.9 1.7 19 12.4 ESE 30 43 16 23 1023.5 1022.6 0.0
13/10:30am 26.9 21.8 4.0 23 11.6 ESE 20 37 11 20 1023.9 1023.0 0.0

Other formats

Comma delimited format used in spreadsheet applications
http://www.bom.gov.au/fwo/IDQ60801/IDQ60801.94341.axf

JavaScript Object Notation format (JSON) in row-major order
http://www.bom.gov.au/fwo/IDQ60801/IDQ60801.94341.json

Data quality

Most of these data are generated automatically and are frequently updated. Quality checks on data are not normally performed. It is possible for incorrect values to appear. Refer to information at About Latest Weather Observations and please check the disclaimer before using these data.